Terminal Aerodrome Forecast
Issued by NWS Mt. Holly, NJ

Home | Current Version | Previous Version | Text Only | Print | Product List | Glossary On
Versions: 1 2 3 4 5 6 7 8 9 10 11 12 13 14 15 16 17
000
FTUS41 KPHI 282300
TAFABE
TAF
KABE 282324Z 2900/2924 34006KT P6SM SKC
     FM290200 34003KT P6SM SKC
     FM291400 03003KT P6SM FEW250
     FM292100 18005KT P6SM FEW250=

USA.gov is the U.S. government's official web portal to all federal, state and local government web resources and services.